Time;durP1;ratioP1;P1;durP2;ratioP2;P2;SDS_P1;SDS_P2;PMS_P1;PMS_P2;Temp;Humidity;BMP_temperature;BMP_pressure;BME280_temperature;BME280_humidity;BME280_pressure;Samples;Min_cycle;Max_cycle;Signal;HPM_P1;HPM_P2
2023/06/11 00:01:58;;;;;;;16.80;9.13;;;;;;;;;;5037328;28;20025;-76
2023/06/11 00:04:30;;;;;;;19.52;9.18;;;;;;;;;;5037028;28;20022;-76
2023/06/11 00:06:56;;;;;;;12.82;8.60;;;;;;;;;;5037440;28;20049;-76
2023/06/11 00:09:23;;;;;;;15.10;9.23;;;;;;;;;;5037067;28;20037;-76
2023/06/11 00:11:49;;;;;;;14.90;8.68;;;;;;;;;;5037301;28;20123;-76
2023/06/11 00:14:15;;;;;;;17.23;9.55;;;;;;;;;;5037366;28;20029;-76
2023/06/11 00:16:43;;;;;;;16.25;8.98;;;;;;;;;;5036672;28;20105;-76
2023/06/11 00:19:09;;;;;;;17.10;9.32;;;;;;;;;;5037358;28;20030;-76
2023/06/11 00:21:36;;;;;;;13.70;9.43;;;;;;;;;;5037410;28;20368;-76
2023/06/11 00:24:02;;;;;;;15.45;9.82;;;;;;;;;;5037458;28;20388;-76
2023/06/11 00:26:28;;;;;;;16.20;9.52;;;;;;;;;;5037018;28;20436;-76
2023/06/11 00:28:55;;;;;;;16.70;9.88;;;;;;;;;;5036575;28;20072;-76
2023/06/11 00:31:21;;;;;;;18.88;9.68;;;;;;;;;;5035394;28;20053;-76
2023/06/11 00:33:47;;;;;;;18.33;10.18;;;;;;;;;;5037022;28;20021;-76
2023/06/11 00:36:13;;;;;;;16.17;10.15;;;;;;;;;;5036700;28;20032;-76
2023/06/11 00:38:41;;;;;;;21.60;10.73;;;;;;;;;;5035746;28;20079;-76
2023/06/11 00:41:06;;;;;;;16.63;9.98;;;;;;;;;;5037255;28;20109;-76
2023/06/11 00:43:32;;;;;;;20.27;10.55;;;;;;;;;;5036852;28;20544;-76
2023/06/11 00:46:02;;;;;;;21.85;11.90;;;;;;;;;;5036635;28;20022;-76
2023/06/11 00:48:28;;;;;;;16.20;10.90;;;;;;;;;;5037115;28;20448;-76
2023/06/11 00:50:54;;;;;;;16.83;9.95;;;;;;;;;;5036782;28;20075;-76
2023/06/11 00:53:24;;;;;;;20.42;10.68;;;;;;;;;;5036198;28;20029;-76
2023/06/11 00:55:50;;;;;;;19.02;9.63;;;;;;;;;;5035839;28;20022;-76
2023/06/11 00:58:17;;;;;;;19.08;10.43;;;;;;;;;;5035825;28;20036;-76
2023/06/11 01:00:47;;;;;;;17.50;10.13;;;;;;;;;;5035934;28;20017;-76
2023/06/11 01:03:17;;;;;;;17.98;9.65;;;;;;;;;;5036208;28;20365;-76
2023/06/11 01:05:53;;;;;;;16.08;10.73;;;;;;;;;;5036006;28;20033;-76
2023/06/11 01:08:19;;;;;;;16.75;9.82;;;;;;;;;;5035867;28;20028;-76
2023/06/11 01:10:47;;;;;;;18.58;10.82;;;;;;;;;;5035947;28;20181;-75
2023/06/11 01:13:12;;;;;;;18.70;10.50;;;;;;;;;;5036031;28;20105;-76
2023/06/11 01:15:38;;;;;;;16.27;10.93;;;;;;;;;;5035978;28;20049;-76
2023/06/11 01:18:32;;;;;;;16.73;10.45;;;;;;;;;;5035863;28;20504;-76
2023/06/11 01:21:04;;;;;;;14.73;9.27;;;;;;;;;;5034028;28;20388;-76
2023/06/11 01:23:41;;;;;;;18.95;10.63;;;;;;;;;;5036248;28;20088;-76
2023/06/11 01:26:10;;;;;;;17.67;11.73;;;;;;;;;;5036182;28;20022;-76
2023/06/11 01:28:37;;;;;;;17.15;10.20;;;;;;;;;;5035465;28;20041;-76
2023/06/11 01:31:09;;;;;;;18.45;10.70;;;;;;;;;;5034343;28;20141;-76
2023/06/11 01:33:35;;;;;;;15.90;9.40;;;;;;;;;;5035498;28;20025;-76
2023/06/11 01:36:02;;;;;;;16.30;9.40;;;;;;;;;;5035380;28;20080;-75
2023/06/11 01:38:34;;;;;;;13.90;10.50;;;;;;;;;;5034747;28;20033;-76
2023/06/11 01:41:01;;;;;;;14.45;10.57;;;;;;;;;;5034875;28;20018;-76
2023/06/11 01:43:30;;;;;;;19.40;10.68;;;;;;;;;;5034683;28;20075;-76
2023/06/11 01:45:58;;;;;;;16.70;11.23;;;;;;;;;;5034826;28;20029;-76
2023/06/11 01:48:24;;;;;;;15.93;11.20;;;;;;;;;;5035207;28;20486;-76
2023/06/11 01:50:50;;;;;;;17.13;11.45;;;;;;;;;;5034906;28;20468;-76
2023/06/11 01:53:16;;;;;;;16.50;11.52;;;;;;;;;;5035039;28;20035;-76
2023/06/11 01:55:42;;;;;;;16.15;11.35;;;;;;;;;;5034942;28;20029;-76
2023/06/11 01:58:09;;;;;;;19.52;12.48;;;;;;;;;;5034689;28;20412;-76
2023/06/11 02:00:35;;;;;;;18.77;12.15;;;;;;;;;;5034698;28;20017;-75
2023/06/11 02:03:02;;;;;;;15.00;11.82;;;;;;;;;;5034130;28;20345;-76
2023/06/11 02:05:28;;;;;;;16.83;11.48;;;;;;;;;;5034612;28;20042;-76
2023/06/11 02:07:55;;;;;;;19.23;11.98;;;;;;;;;;5034409;28;20108;-76
2023/06/11 02:10:20;;;;;;;14.35;11.52;;;;;;;;;;5034493;28;20060;-76
2023/06/11 02:12:46;;;;;;;14.65;11.45;;;;;;;;;;5034216;28;20034;-75
2023/06/11 02:15:13;;;;;;;17.08;12.05;;;;;;;;;;5034441;28;20441;-75
2023/06/11 02:17:39;;;;;;;17.38;11.75;;;;;;;;;;5034289;28;20061;-76
2023/06/11 02:20:06;;;;;;;17.73;12.20;;;;;;;;;;5035326;28;20029;-76
2023/06/11 02:22:33;;;;;;;18.20;12.10;;;;;;;;;;5035176;28;20484;-76
2023/06/11 02:25:00;;;;;;;16.02;12.20;;;;;;;;;;5033911;28;20487;-76
2023/06/11 02:27:25;;;;;;;14.40;12.30;;;;;;;;;;5034704;28;20022;-76
2023/06/11 02:29:51;;;;;;;20.25;12.38;;;;;;;;;;5032523;28;20149;-75
2023/06/11 02:32:17;;;;;;;16.63;12.18;;;;;;;;;;5032934;28;20100;-75
2023/06/11 02:34:43;;;;;;;17.35;12.45;;;;;;;;;;5033999;28;20025;-76
2023/06/11 02:37:09;;;;;;;19.80;12.00;;;;;;;;;;5034256;28;20029;-75
2023/06/11 02:39:35;;;;;;;17.67;12.32;;;;;;;;;;5034151;28;20457;-76
2023/06/11 02:42:01;;;;;;;15.77;11.98;;;;;;;;;;5034083;28;20100;-75
2023/06/11 02:44:27;;;;;;;15.40;11.80;;;;;;;;;;5032995;28;20013;-76
2023/06/11 02:46:53;;;;;;;20.05;12.07;;;;;;;;;;5034021;28;20075;-75
2023/06/11 02:49:20;;;;;;;19.13;12.18;;;;;;;;;;5033600;28;20037;-75
2023/06/11 02:51:46;;;;;;;16.15;11.82;;;;;;;;;;5033968;28;20036;-75
2023/06/11 02:54:12;;;;;;;19.05;12.02;;;;;;;;;;5033999;28;20030;-76
2023/06/11 02:56:38;;;;;;;16.38;11.75;;;;;;;;;;5033881;28;20029;-75
2023/06/11 02:59:05;;;;;;;19.67;12.30;;;;;;;;;;5033817;28;20092;-76
2023/06/11 03:01:31;;;;;;;18.52;12.43;;;;;;;;;;5033780;28;20018;-76
2023/06/11 03:03:57;;;;;;;20.48;12.82;;;;;;;;;;5033837;28;20053;-75
2023/06/11 03:06:23;;;;;;;16.90;11.80;;;;;;;;;;5033365;28;20025;-75
2023/06/11 03:08:49;;;;;;;15.25;12.50;;;;;;;;;;5033131;28;20053;-76
2023/06/11 03:11:15;;;;;;;19.08;12.55;;;;;;;;;;5033900;28;20372;-76
2023/06/11 03:13:41;;;;;;;18.02;12.45;;;;;;;;;;5033681;28;20025;-75
2023/06/11 03:16:07;;;;;;;17.83;12.40;;;;;;;;;;5033399;28;20029;-76
2023/06/11 03:18:33;;;;;;;16.60;12.63;;;;;;;;;;5033741;28;20029;-76
2023/06/11 03:20:59;;;;;;;14.77;12.30;;;;;;;;;;5033708;28;20088;-75
2023/06/11 03:23:25;;;;;;;14.95;11.70;;;;;;;;;;5034561;28;20021;-76
2023/06/11 03:25:51;;;;;;;13.63;11.23;;;;;;;;;;5033942;28;20345;-76
2023/06/11 03:28:17;;;;;;;15.23;11.88;;;;;;;;;;5033325;28;20075;-76
2023/06/11 03:30:43;;;;;;;13.63;11.68;;;;;;;;;;5031994;28;20040;-76
2023/06/11 03:33:09;;;;;;;16.13;12.75;;;;;;;;;;5031776;28;20452;-75
2023/06/11 03:35:35;;;;;;;15.48;12.23;;;;;;;;;;5033074;28;20025;-75
2023/06/11 03:38:01;;;;;;;17.73;12.27;;;;;;;;;;5032813;28;20037;-75
2023/06/11 03:40:27;;;;;;;16.52;12.70;;;;;;;;;;5032757;28;20421;-76
2023/06/11 03:42:53;;;;;;;14.50;12.05;;;;;;;;;;5032950;28;20048;-75
2023/06/11 03:45:19;;;;;;;16.05;12.48;;;;;;;;;;5032401;28;20448;-75
2023/06/11 03:47:45;;;;;;;14.88;11.60;;;;;;;;;;5032614;28;20457;-75
2023/06/11 03:50:12;;;;;;;14.38;12.35;;;;;;;;;;5032285;28;20041;-75
2023/06/11 03:52:38;;;;;;;13.65;11.93;;;;;;;;;;5032734;28;20032;-75
2023/06/11 03:55:04;;;;;;;15.77;12.68;;;;;;;;;;5032432;28;20021;-75
2023/06/11 03:57:30;;;;;;;16.02;12.95;;;;;;;;;;5014126;28;20033;-75
2023/06/11 03:59:56;;;;;;;15.30;12.82;;;;;;;;;;5012623;28;20030;-75
2023/06/11 04:02:22;;;;;;;14.90;11.63;;;;;;;;;;5012427;28;20030;-75
2023/06/11 04:04:48;;;;;;;14.30;12.80;;;;;;;;;;5012664;28;20034;-75
2023/06/11 04:07:21;;;;;;;14.57;12.63;;;;;;;;;;5012493;28;20026;-75
2023/06/11 04:09:47;;;;;;;14.02;12.40;;;;;;;;;;5029234;28;20079;-75
2023/06/11 04:12:13;;;;;;;16.55;12.18;;;;;;;;;;5032204;28;20030;-75
2023/06/11 04:14:39;;;;;;;15.07;12.57;;;;;;;;;;5032268;28;20613;-75
2023/06/11 04:17:05;;;;;;;13.85;12.02;;;;;;;;;;5032774;28;20045;-75
2023/06/11 04:19:31;;;;;;;15.07;11.55;;;;;;;;;;5033517;28;20427;-76
2023/06/11 04:21:57;;;;;;;13.35;11.95;;;;;;;;;;5034250;28;20026;-76
2023/06/11 04:24:23;;;;;;;13.73;11.68;;;;;;;;;;5034235;28;20028;-76
2023/06/11 04:26:51;;;;;;;14.10;11.13;;;;;;;;;;5033220;28;20029;-76
2023/06/11 04:29:18;;;;;;;12.77;11.48;;;;;;;;;;5028497;28;20118;-76
2023/06/11 04:31:46;;;;;;;13.10;11.90;;;;;;;;;;5012615;28;20406;-76
2023/06/11 04:34:12;;;;;;;12.88;11.57;;;;;;;;;;5025797;28;20026;-76
2023/06/11 04:36:40;;;;;;;12.80;11.40;;;;;;;;;;5032560;28;20033;-76
2023/06/11 04:39:07;;;;;;;12.88;11.45;;;;;;;;;;5032870;28;20072;-76
2023/06/11 04:41:36;;;;;;;12.65;11.35;;;;;;;;;;5034451;28;20029;-76
2023/06/11 04:44:02;;;;;;;12.32;11.02;;;;;;;;;;5036948;28;20463;-76
2023/06/11 04:46:28;;;;;;;13.48;11.93;;;;;;;;;;5037745;28;20037;-76
2023/06/11 04:48:57;;;;;;;13.50;11.77;;;;;;;;;;5037011;28;20393;-76
2023/06/11 04:51:23;;;;;;;13.65;11.20;;;;;;;;;;5036107;28;20026;-76
2023/06/11 04:53:54;;;;;;;12.30;11.15;;;;;;;;;;5037007;28;20057;-76
2023/06/11 04:56:20;;;;;;;13.57;11.20;;;;;;;;;;5036107;28;20025;-76
2023/06/11 04:58:46;;;;;;;12.82;11.48;;;;;;;;;;5035688;28;20041;-76
2023/06/11 05:01:12;;;;;;;13.15;11.95;;;;;;;;;;5035637;28;20461;-76
2023/06/11 05:03:38;;;;;;;12.32;11.05;;;;;;;;;;5034688;28;20029;-76
2023/06/11 05:06:04;;;;;;;12.88;11.68;;;;;;;;;;5035603;28;20018;-76
2023/06/11 05:08:32;;;;;;;12.35;11.15;;;;;;;;;;5035172;28;20025;-77
2023/06/11 05:10:58;;;;;;;13.35;12.05;;;;;;;;;;5038961;28;20698;-78
2023/06/11 05:13:25;;;;;;;12.70;11.43;;;;;;;;;;5036375;28;20066;-78
2023/06/11 05:15:51;;;;;;;14.65;10.82;;;;;;;;;;5035663;28;20480;-77
2023/06/11 05:18:17;;;;;;;11.80;10.70;;;;;;;;;;5036306;28;20029;-78
2023/06/11 05:20:43;;;;;;;12.02;10.93;;;;;;;;;;5035702;28;20082;-77
2023/06/11 05:23:10;;;;;;;12.75;11.55;;;;;;;;;;5036598;28;20029;-78
2023/06/11 05:25:36;;;;;;;11.32;10.32;;;;;;;;;;5036154;28;20114;-78
2023/06/11 05:28:02;;;;;;;12.38;11.25;;;;;;;;;;5034784;28;20067;-77
2023/06/11 05:30:29;;;;;;;12.90;11.20;;;;;;;;;;5034524;28;20506;-78
2023/06/11 05:32:56;;;;;;;12.98;11.27;;;;;;;;;;5033215;28;20139;-77
2023/06/11 05:35:23;;;;;;;11.35;10.27;;;;;;;;;;5034521;28;20105;-78
2023/06/11 05:37:49;;;;;;;11.88;10.60;;;;;;;;;;5035717;28;20112;-78
2023/06/11 05:40:15;;;;;;;11.95;10.57;;;;;;;;;;5038474;28;20034;-78
2023/06/11 05:42:41;;;;;;;12.70;10.45;;;;;;;;;;5037570;28;20084;-78
2023/06/11 05:45:13;;;;;;;11.55;10.55;;;;;;;;;;5036973;28;20021;-78
2023/06/11 05:47:39;;;;;;;12.02;10.85;;;;;;;;;;5035287;28;20025;-78
2023/06/11 05:50:06;;;;;;;11.13;10.13;;;;;;;;;;5037861;28;20033;-78
2023/06/11 05:52:32;;;;;;;12.00;10.90;;;;;;;;;;5034806;28;20385;-77
2023/06/11 05:54:58;;;;;;;12.45;11.18;;;;;;;;;;5035285;28;20468;-77
2023/06/11 05:57:24;;;;;;;11.95;10.85;;;;;;;;;;5035186;28;20610;-76
2023/06/11 05:59:51;;;;;;;12.35;11.15;;;;;;;;;;5034630;28;20030;-76
2023/06/11 06:02:17;;;;;;;12.40;11.32;;;;;;;;;;5035768;28;20040;-77
2023/06/11 06:04:46;;;;;;;12.32;11.10;;;;;;;;;;5035249;28;20029;-77
2023/06/11 06:07:12;;;;;;;12.20;11.05;;;;;;;;;;5035130;28;20032;-76
2023/06/11 06:09:38;;;;;;;11.45;10.45;;;;;;;;;;5035526;28;20045;-76
2023/06/11 06:12:04;;;;;;;11.65;10.55;;;;;;;;;;5036126;28;20061;-77
2023/06/11 06:14:30;;;;;;;12.30;11.20;;;;;;;;;;5036140;28;20479;-77
2023/06/11 06:16:56;;;;;;;11.95;10.75;;;;;;;;;;5034385;28;20029;-76
2023/06/11 06:19:22;;;;;;;12.77;11.02;;;;;;;;;;5033766;28;20053;-76
2023/06/11 06:21:48;;;;;;;11.80;10.80;;;;;;;;;;5033660;28;20029;-76
2023/06/11 06:24:13;;;;;;;12.52;11.23;;;;;;;;;;5035852;28;20100;-76
2023/06/11 06:26:40;;;;;;;11.82;10.82;;;;;;;;;;5032947;28;20428;-76
2023/06/11 06:29:12;;;;;;;11.43;10.32;;;;;;;;;;5032422;28;20026;-76
2023/06/11 06:31:38;;;;;;;11.18;10.13;;;;;;;;;;5032569;28;20033;-76
2023/06/11 06:34:04;;;;;;;11.35;10.30;;;;;;;;;;5033384;28;20029;-76
2023/06/11 06:36:31;;;;;;;12.55;11.45;;;;;;;;;;5034055;28;20030;-76
2023/06/11 06:38:57;;;;;;;12.25;11.27;;;;;;;;;;5034403;28;20033;-76
2023/06/11 06:41:23;;;;;;;12.38;11.30;;;;;;;;;;5033576;28;20026;-76
2023/06/11 06:43:49;;;;;;;12.13;11.02;;;;;;;;;;5033926;28;20108;-76
2023/06/11 06:46:15;;;;;;;11.55;10.45;;;;;;;;;;5033799;28;20033;-76
2023/06/11 06:48:41;;;;;;;11.70;10.65;;;;;;;;;;5033483;28;20030;-75
2023/06/11 06:51:07;;;;;;;12.52;11.32;;;;;;;;;;5034016;28;20025;-76
2023/06/11 06:53:33;;;;;;;12.05;11.05;;;;;;;;;;5034215;28;20057;-76
2023/06/11 06:56:00;;;;;;;11.95;10.95;;;;;;;;;;5033752;28;20057;-76
2023/06/11 06:58:27;;;;;;;11.90;10.80;;;;;;;;;;5033239;28;20747;-76
2023/06/11 07:00:53;;;;;;;10.63;9.73;;;;;;;;;;5032930;28;20013;-76
2023/06/11 07:03:19;;;;;;;12.00;10.88;;;;;;;;;;5027641;28;20100;-76
2023/06/11 07:05:45;;;;;;;11.77;10.65;;;;;;;;;;5032821;28;20040;-75
2023/06/11 07:08:12;;;;;;;11.25;10.27;;;;;;;;;;5031961;28;20039;-76
2023/06/11 07:10:56;;;;;;;11.85;10.73;;;;;;;;;;5032889;28;20502;-75
2023/06/11 07:13:22;;;;;;;10.80;9.80;;;;;;;;;;5030494;28;20025;-76
2023/06/11 07:15:48;;;;;;;11.77;10.55;;;;;;;;;;5013161;28;20488;-75
2023/06/11 07:18:14;;;;;;;10.85;9.93;;;;;;;;;;5023776;28;20526;-75
2023/06/11 07:20:41;;;;;;;11.25;10.10;;;;;;;;;;5033351;28;20160;-75
2023/06/11 07:23:07;;;;;;;11.68;10.57;;;;;;;;;;5034410;28;20033;-76
2023/06/11 07:25:33;;;;;;;12.27;11.18;;;;;;;;;;5033251;28;20032;-77
2023/06/11 07:28:01;;;;;;;12.00;11.10;;;;;;;;;;5024757;28;20033;-76
2023/06/11 07:30:27;;;;;;;11.30;10.40;;;;;;;;;;5037737;28;20033;-77
2023/06/11 07:32:53;;;;;;;10.90;10.00;;;;;;;;;;5011207;28;20052;-77
2023/06/11 07:35:22;;;;;;;12.00;10.25;;;;;;;;;;5013127;28;20081;-76
2023/06/11 07:37:49;;;;;;;10.32;9.48;;;;;;;;;;5013543;28;20026;-77
2023/06/11 07:40:15;;;;;;;10.63;9.75;;;;;;;;;;5013264;28;20041;-76
2023/06/11 07:42:45;;;;;;;11.30;10.20;;;;;;;;;;5013269;28;20022;-77
2023/06/11 07:45:11;;;;;;;10.95;9.95;;;;;;;;;;5014180;28;20026;-77
2023/06/11 07:47:37;;;;;;;10.85;9.95;;;;;;;;;;5013683;28;20022;-76
2023/06/11 07:50:04;;;;;;;11.63;10.63;;;;;;;;;;5013791;28;20038;-77
2023/06/11 07:52:30;;;;;;;11.80;10.70;;;;;;;;;;5024536;28;20021;-77
2023/06/11 07:54:56;;;;;;;11.50;10.50;;;;;;;;;;5033794;28;20030;-76
2023/06/11 07:57:22;;;;;;;10.98;10.05;;;;;;;;;;5033304;28;20033;-77
2023/06/11 07:59:48;;;;;;;11.13;10.13;;;;;;;;;;5032255;28;20032;-77
2023/06/11 08:02:15;;;;;;;11.20;10.20;;;;;;;;;;5032827;28;20017;-76
2023/06/11 08:04:41;;;;;;;11.27;10.32;;;;;;;;;;5033714;28;20053;-75
2023/06/11 08:07:07;;;;;;;11.23;10.02;;;;;;;;;;5032226;28;20029;-75
2023/06/11 08:09:37;;;;;;;10.75;9.90;;;;;;;;;;5032226;28;20033;-76
2023/06/11 08:12:07;;;;;;;10.52;9.63;;;;;;;;;;5030672;28;20441;-76
2023/06/11 08:14:33;;;;;;;10.68;9.77;;;;;;;;;;5013154;28;20082;-76
2023/06/11 08:16:59;;;;;;;10.85;9.95;;;;;;;;;;5015454;28;20101;-76
2023/06/11 08:19:26;;;;;;;10.43;9.60;;;;;;;;;;5016484;28;20500;-76
2023/06/11 08:21:52;;;;;;;11.35;10.25;;;;;;;;;;5029362;28;20029;-76
2023/06/11 08:24:18;;;;;;;10.57;9.70;;;;;;;;;;5036963;28;20034;-76
2023/06/11 08:26:44;;;;;;;11.13;10.15;;;;;;;;;;5036603;28;20026;-76
2023/06/11 08:29:10;;;;;;;10.88;10.07;;;;;;;;;;5034314;28;20521;-75
2023/06/11 08:31:37;;;;;;;11.32;10.32;;;;;;;;;;5035094;28;20036;-76
2023/06/11 08:34:03;;;;;;;12.13;9.98;;;;;;;;;;5036553;28;20026;-75
2023/06/11 08:36:29;;;;;;;10.30;9.38;;;;;;;;;;5036053;28;20079;-75
2023/06/11 08:38:55;;;;;;;10.70;9.55;;;;;;;;;;5035823;28;20419;-76
2023/06/11 08:41:23;;;;;;;11.02;9.73;;;;;;;;;;5035697;28;20883;-75
2023/06/11 08:43:49;;;;;;;10.57;9.68;;;;;;;;;;5035311;28;20028;-76
2023/06/11 08:46:15;;;;;;;10.07;9.27;;;;;;;;;;5024923;28;20029;-76
2023/06/11 08:48:44;;;;;;;17.08;10.88;;;;;;;;;;5038941;28;20092;-77
2023/06/11 08:51:11;;;;;;;17.15;10.50;;;;;;;;;;5041564;28;20013;-76
2023/06/11 08:53:38;;;;;;;20.52;11.75;;;;;;;;;;5040558;28;20025;-74
2023/06/11 08:56:04;;;;;;;102.78;22.20;;;;;;;;;;5036184;28;20060;-76
2023/06/11 08:58:31;;;;;;;47.35;16.05;;;;;;;;;;5035430;28;20068;-76
2023/06/11 09:00:57;;;;;;;15.90;11.30;;;;;;;;;;5032292;28;20022;-75
2023/06/11 09:03:23;;;;;;;10.50;9.40;;;;;;;;;;5028809;28;20029;-75
2023/06/11 09:05:50;;;;;;;18.63;10.57;;;;;;;;;;5029163;28;20029;-75
2023/06/11 09:08:16;;;;;;;10.38;9.43;;;;;;;;;;5040031;28;20018;-75
2023/06/11 09:10:49;;;;;;;10.18;9.32;;;;;;;;;;5036727;28;20072;-75
2023/06/11 09:13:16;;;;;;;10.32;9.52;;;;;;;;;;5033293;28;20030;-75
2023/06/11 09:15:50;;;;;;;10.77;9.85;;;;;;;;;;5034639;28;20100;-74
2023/06/11 09:18:19;;;;;;;10.02;9.23;;;;;;;;;;5015093;28;20065;-75
2023/06/11 09:21:03;;;;;;;10.73;9.80;;;;;;;;;;5017231;28;20022;-75
2023/06/11 09:23:30;;;;;;;11.30;10.32;;;;;;;;;;5035466;28;20076;-75
2023/06/11 09:25:57;;;;;;;10.65;9.77;;;;;;;;;;5035040;28;20400;-75
2023/06/11 09:28:33;;;;;;;9.65;8.93;;;;;;;;;;5033247;28;20025;-74
2023/06/11 09:31:00;;;;;;;10.48;9.65;;;;;;;;;;5019373;28;20040;-75
2023/06/11 09:33:27;;;;;;;10.57;9.40;;;;;;;;;;5030380;28;20050;-76
2023/06/11 09:35:53;;;;;;;9.77;8.93;;;;;;;;;;5041963;28;20036;-75
2023/06/11 09:38:19;;;;;;;10.73;9.63;;;;;;;;;;5042019;28;20119;-76
2023/06/11 09:40:49;;;;;;;10.43;9.38;;;;;;;;;;5037185;28;20369;-76
2023/06/11 09:43:18;;;;;;;10.32;9.43;;;;;;;;;;5037135;28;20034;-76
2023/06/11 09:45:44;;;;;;;10.70;9.77;;;;;;;;;;5039159;28;20025;-76
2023/06/11 09:48:14;;;;;;;10.48;9.45;;;;;;;;;;5039676;28;20548;-76
2023/06/11 09:50:42;;;;;;;10.98;10.07;;;;;;;;;;5039641;28;20060;-76
2023/06/11 09:53:10;;;;;;;10.30;9.27;;;;;;;;;;5040155;28;20033;-76
2023/06/11 09:55:36;;;;;;;9.73;8.90;;;;;;;;;;5038367;28;20160;-76
2023/06/11 09:58:05;;;;;;;9.40;8.50;;;;;;;;;;5036987;28;20071;-76
2023/06/11 10:00:32;;;;;;;9.15;8.45;;;;;;;;;;5037560;28;20029;-76
2023/06/11 10:02:58;;;;;;;10.10;9.10;;;;;;;;;;5037405;28;20096;-76
2023/06/11 10:05:24;;;;;;;9.90;9.10;;;;;;;;;;5036948;28;20060;-76
2023/06/11 10:08:02;;;;;;;10.05;9.07;;;;;;;;;;5038821;28;20033;-76
2023/06/11 10:10:29;;;;;;;10.25;9.30;;;;;;;;;;5040658;28;20041;-76
2023/06/11 10:12:55;;;;;;;10.57;9.70;;;;;;;;;;5040698;28;20053;-76
2023/06/11 10:15:23;;;;;;;10.13;9.23;;;;;;;;;;5039742;28;20030;-75
2023/06/11 10:17:50;;;;;;;9.93;9.10;;;;;;;;;;5040183;28;20075;-76
2023/06/11 10:20:20;;;;;;;10.82;9.70;;;;;;;;;;5039757;28;20025;-75
2023/06/11 10:22:46;;;;;;;9.77;8.98;;;;;;;;;;5039986;28;20029;-76
2023/06/11 10:25:13;;;;;;;9.85;9.05;;;;;;;;;;5041184;28;20104;-76
2023/06/11 10:27:41;;;;;;;9.95;8.98;;;;;;;;;;5040155;28;20036;-76
2023/06/11 10:30:08;;;;;;;9.77;8.88;;;;;;;;;;5037921;28;20048;-76
2023/06/11 10:32:34;;;;;;;10.20;9.15;;;;;;;;;;5036590;28;20076;-75
2023/06/11 10:35:03;;;;;;;10.35;9.43;;;;;;;;;;5037563;28;20100;-75
2023/06/11 10:37:29;;;;;;;;;;;;;;;;;;5037825;28;20026;-76
2023/06/11 10:39:55;;;;;;;10.23;9.40;;;;;;;;;;5036907;28;19912;-75
2023/06/11 10:42:28;;;;;;;9.27;8.55;;;;;;;;;;5036859;28;20026;-75
2023/06/11 10:44:57;;;;;;;9.93;9.02;;;;;;;;;;5036114;28;20029;-75
2023/06/11 10:47:23;;;;;;;10.15;9.10;;;;;;;;;;5036560;28;20105;-76
2023/06/11 10:49:49;;;;;;;10.98;9.40;;;;;;;;;;5036253;28;20037;-76
2023/06/11 10:52:16;;;;;;;9.98;8.98;;;;;;;;;;5036578;28;20029;-76
2023/06/11 10:54:45;;;;;;;9.13;8.32;;;;;;;;;;5036270;28;20330;-76
2023/06/11 10:57:11;;;;;;;9.90;9.10;;;;;;;;;;5035984;28;20061;-76
2023/06/11 10:59:38;;;;;;;9.98;9.07;;;;;;;;;;5035889;28;20049;-76
2023/06/11 11:02:04;;;;;;;9.95;9.13;;;;;;;;;;5035845;28;20449;-76
2023/06/11 11:04:30;;;;;;;9.18;8.45;;;;;;;;;;5035636;28;20032;-76
2023/06/11 11:07:08;;;;;;;9.70;8.93;;;;;;;;;;5035697;28;20446;-76
2023/06/11 11:09:34;;;;;;;9.10;8.43;;;;;;;;;;5035519;28;20026;-76
2023/06/11 11:12:00;;;;;;;10.05;9.15;;;;;;;;;;5037213;28;20449;-76
2023/06/11 11:14:27;;;;;;;9.35;8.55;;;;;;;;;;5037652;28;20083;-76
2023/06/11 11:16:55;;;;;;;9.40;8.50;;;;;;;;;;5035520;28;20021;-76
2023/06/11 11:19:24;;;;;;;9.68;8.75;;;;;;;;;;5050354;28;20026;-76
2023/06/11 11:21:51;;;;;;;9.95;8.95;;;;;;;;;;5055697;28;20029;-75
2023/06/11 11:24:17;;;;;;;9.52;8.65;;;;;;;;;;5041026;28;20025;-76
2023/06/11 11:26:44;;;;;;;9.65;8.75;;;;;;;;;;5039988;28;20432;-75
2023/06/11 11:29:10;;;;;;;9.80;8.88;;;;;;;;;;5039459;28;20037;-76
2023/06/11 11:31:36;;;;;;;9.30;8.40;;;;;;;;;;5038848;28;20025;-75
2023/06/11 11:34:02;;;;;;;8.93;8.23;;;;;;;;;;5037850;28;20092;-75
2023/06/11 11:36:28;;;;;;;8.63;7.90;;;;;;;;;;5037328;28;20030;-75
2023/06/11 11:38:55;;;;;;;7.80;7.20;;;;;;;;;;5034428;28;20040;-76
2023/06/11 11:41:24;;;;;;;9.13;8.43;;;;;;;;;;5035199;28;20021;-76
2023/06/11 11:43:51;;;;;;;9.38;8.57;;;;;;;;;;5037204;28;20384;-75
2023/06/11 11:46:17;;;;;;;8.30;7.50;;;;;;;;;;5035969;28;20391;-75
2023/06/11 11:48:44;;;;;;;7.97;7.30;;;;;;;;;;5036374;28;20361;-75
2023/06/11 11:51:11;;;;;;;8.77;8.10;;;;;;;;;;5037085;28;20037;-75
2023/06/11 11:53:37;;;;;;;8.93;8.05;;;;;;;;;;5041407;28;20100;-75
2023/06/11 11:56:06;;;;;;;8.77;7.97;;;;;;;;;;5039868;28;20152;-75
2023/06/11 11:58:52;;;;;;;8.45;7.65;;;;;;;;;;5038771;28;20053;-75
2023/06/11 12:01:26;;;;;;;11.30;8.52;;;;;;;;;;5034693;28;20025;-75
2023/06/11 12:03:56;;;;;;;8.38;7.68;;;;;;;;;;5035559;28;20032;-76
2023/06/11 12:06:25;;;;;;;7.85;7.13;;;;;;;;;;5037387;28;20017;-76
2023/06/11 12:08:51;;;;;;;8.35;7.53;;;;;;;;;;5037513;28;20022;-76
2023/06/11 12:11:17;;;;;;;8.48;7.45;;;;;;;;;;5036562;28;20485;-76
2023/06/11 12:13:43;;;;;;;8.18;7.47;;;;;;;;;;5036188;28;20029;-76
2023/06/11 12:16:09;;;;;;;7.70;6.95;;;;;;;;;;5036209;28;20037;-76
2023/06/11 12:18:36;;;;;;;7.30;6.63;;;;;;;;;;5036279;28;20487;-76
2023/06/11 12:21:02;;;;;;;8.00;7.30;;;;;;;;;;5036167;28;20365;-76
2023/06/11 12:23:28;;;;;;;8.07;7.28;;;;;;;;;;5034721;28;20033;-76
2023/06/11 12:25:54;;;;;;;7.60;6.97;;;;;;;;;;5035928;28;20036;-76
2023/06/11 12:28:20;;;;;;;8.73;7.80;;;;;;;;;;5034498;28;20051;-76
2023/06/11 12:30:46;;;;;;;8.52;7.82;;;;;;;;;;5035144;28;20061;-76
2023/06/11 12:33:12;;;;;;;8.65;7.85;;;;;;;;;;5034632;28;20049;-76
2023/06/11 12:35:38;;;;;;;8.10;7.40;;;;;;;;;;5035790;28;20030;-75
2023/06/11 12:38:04;;;;;;;8.20;7.50;;;;;;;;;;5034945;28;21363;-75
2023/06/11 12:40:31;;;;;;;8.32;7.45;;;;;;;;;;5035861;28;20040;-75
2023/06/11 12:42:58;;;;;;;8.70;7.80;;;;;;;;;;5034945;28;20022;-75
2023/06/11 12:45:28;;;;;;;7.93;7.32;;;;;;;;;;5016072;28;20025;-75
2023/06/11 12:47:57;;;;;;;7.93;7.28;;;;;;;;;;5029432;28;20076;-75
2023/06/11 12:50:26;;;;;;;;;;;;;;;;;;5035766;28;20480;-75
2023/06/11 12:52:52;;;;;;;7.22;6.72;;;;;;;;;;5035483;28;19940;-75
2023/06/11 12:55:18;;;;;;;7.70;6.97;;;;;;;;;;5035594;28;20075;-76
2023/06/11 12:57:44;;;;;;;8.05;7.35;;;;;;;;;;5035089;28;20028;-76
2023/06/11 13:00:11;;;;;;;8.10;7.40;;;;;;;;;;5035359;28;20404;-76
2023/06/11 13:02:38;;;;;;;7.90;7.20;;;;;;;;;;5035043;28;20022;-75
2023/06/11 13:05:04;;;;;;;7.65;6.95;;;;;;;;;;5035228;28;20056;-76
2023/06/11 13:07:30;;;;;;;7.80;7.20;;;;;;;;;;5035406;28;20032;-75
2023/06/11 13:09:56;;;;;;;7.85;7.00;;;;;;;;;;5035002;28;20022;-76
2023/06/11 13:12:24;;;;;;;6.97;6.47;;;;;;;;;;5035502;28;20029;-75
2023/06/11 13:14:51;;;;;;;7.03;6.43;;;;;;;;;;5035261;28;20512;-75
2023/06/11 13:17:17;;;;;;;7.50;6.80;;;;;;;;;;5034918;28;20471;-75
2023/06/11 13:19:43;;;;;;;6.10;5.60;;;;;;;;;;5034990;28;20026;-75
2023/06/11 13:22:12;;;;;;;6.75;6.15;;;;;;;;;;5034825;28;20518;-75
2023/06/11 13:24:39;;;;;;;6.32;5.72;;;;;;;;;;5036021;28;20029;-75
2023/06/11 13:27:07;;;;;;;6.40;5.80;;;;;;;;;;5035246;28;20419;-76
2023/06/11 13:29:34;;;;;;;6.45;5.93;;;;;;;;;;5050454;28;20507;-76
2023/06/11 13:32:00;;;;;;;6.28;5.68;;;;;;;;;;5034188;28;20029;-75
2023/06/11 13:34:32;;;;;;;6.20;5.60;;;;;;;;;;5033944;28;20049;-75
2023/06/11 13:36:58;;;;;;;6.63;6.03;;;;;;;;;;5034659;28;20037;-75
2023/06/11 13:39:24;;;;;;;8.00;5.78;;;;;;;;;;5034374;28;20492;-75
2023/06/11 13:41:50;;;;;;;5.75;5.25;;;;;;;;;;5049731;28;20025;-75
2023/06/11 13:44:16;;;;;;;8.07;6.22;;;;;;;;;;5034416;28;20044;-75
2023/06/11 13:46:42;;;;;;;5.90;5.40;;;;;;;;;;5033376;28;20111;-75
2023/06/11 13:49:08;;;;;;;6.28;5.68;;;;;;;;;;5016384;28;20461;-75
2023/06/11 13:51:34;;;;;;;6.80;6.03;;;;;;;;;;5018118;28;20109;-75
2023/06/11 13:54:01;;;;;;;6.93;5.80;;;;;;;;;;5014793;28;20032;-75
2023/06/11 13:56:27;;;;;;;7.07;6.38;;;;;;;;;;5014262;28;20029;-75
2023/06/11 13:58:53;;;;;;;6.20;5.80;;;;;;;;;;5014141;28;20025;-75
2023/06/11 14:01:19;;;;;;;8.00;5.53;;;;;;;;;;5014009;28;20026;-75
2023/06/11 14:03:45;;;;;;;6.32;5.72;;;;;;;;;;5013996;28;20030;-75
2023/06/11 14:06:12;;;;;;;6.78;6.18;;;;;;;;;;5013972;28;20034;-75
2023/06/11 14:08:38;;;;;;;6.72;6.20;;;;;;;;;;5014203;28;20030;-75
2023/06/11 14:11:04;;;;;;;6.60;5.90;;;;;;;;;;5013793;28;20080;-75
2023/06/11 14:13:30;;;;;;;6.80;6.05;;;;;;;;;;5013533;28;20030;-76
2023/06/11 14:15:56;;;;;;;6.30;5.80;;;;;;;;;;5013911;28;20026;-78
2023/06/11 14:18:22;;;;;;;6.35;5.85;;;;;;;;;;5013979;28;20035;-77
2023/06/11 14:20:48;;;;;;;7.03;6.32;;;;;;;;;;5021119;28;20036;-75
2023/06/11 14:23:14;;;;;;;6.80;6.20;;;;;;;;;;5033413;28;20030;-75
2023/06/11 14:25:40;;;;;;;6.57;5.97;;;;;;;;;;5033076;28;20033;-75
2023/06/11 14:28:07;;;;;;;6.25;5.75;;;;;;;;;;5033695;28;20037;-76